Catherine — 9HA4113 — position and weather

sailwx.info

Track history (hours):
 
Tides and Currents Weather Stations Pressure Air Temp Water Temp Dewpoint Dewpoint Depression Visibility Wind Speed Wind Dir Waves Ship Positions

Catherine

Last reported at 2018-Feb-19 16:00 UTC. Time now 2018-Feb-19 16:01 UTC.
Position N 47°47' W 005°25'.

Length 182 m; draft 7.4 m.

Type: Ship (hazmat cat A). MMSI: 249107000.

Date/timePositionNaut miles runAvg speedWind from/ knotsBaromVisibWave heightAir tempDewpointWater temp
2018-Feb-19 16:00N 47°47' W 005°25'815.5
2018-Feb-19 15:28N 47°40' W 005°22'715.7
2018-Feb-19 15:00N 47°33' W 005°19'815.6
2018-Feb-19 14:30N 47°25' W 005°16'815.5
2018-Feb-19 13:58N 47°17' W 005°13'815.6
2018-Feb-19 13:25N 47°09' W 005°10'1215.8
2018-Feb-19 12:41N 46°57' W 005°05'315.9
2018-Feb-19 12:29N 46°54' W 005°04'20715.7
2018-Feb-18 23:16N 43°34' W 003°47'64 8.1
2018-Feb-18 15:24N 43°38' W 005°14'717.9
2018-Feb-18 15:00N 43°39' W 005°24'918.1
2018-Feb-18 14:30N 43°40' W 005°37'918.3
2018-Feb-18 14:00N 43°41' W 005°49'918.2
2018-Feb-18 13:30N 43°42' W 006°02'1017.9
2018-Feb-18 12:58N 43°43' W 006°15'18610.8
2018-Feb-17 19:46N 41°15' W 008°48'415.4
2018-Feb-17 19:30N 41°11' W 008°46'3 5.4
2018-Feb-17 18:59N 41°11' W 008°42'0 0.0
2018-Feb-17 18:29N 41°11' W 008°42'0 0.0
2018-Feb-17 17:59N 41°11' W 008°42'0 0.0
2018-Feb-17 17:29N 41°11' W 008°42'0 0.0
2018-Feb-17 16:59N 41°11' W 008°42'0 0.0
2018-Feb-17 16:29N 41°11' W 008°42'0 0.0
2018-Feb-17 15:59N 41°11' W 008°42'0 0.0
2018-Feb-17 15:29N 41°11' W 008°42'0 0.0
2018-Feb-17 14:59N 41°11' W 008°42'0 0.0
2018-Feb-17 14:29N 41°11' W 008°42'0 0.0
2018-Feb-17 13:59N 41°11' W 008°42'0 0.0
2018-Feb-17 13:29N 41°11' W 008°42'0 0.0
2018-Feb-17 12:59N 41°11' W 008°42'0 0.0
2018-Feb-17 12:29N 41°11' W 008°42'0 0.0
2018-Feb-17 11:59N 41°11' W 008°42'0 0.0
2018-Feb-17 11:29N 41°11' W 008°42'0 0.0
2018-Feb-17 10:59N 41°11' W 008°42'0 0.0
2018-Feb-17 10:29N 41°11' W 008°42'0 0.0
2018-Feb-17 09:59N 41°11' W 008°42'0 0.0
2018-Feb-17 09:29N 41°11' W 008°42'0 0.0
2018-Feb-17 08:59N 41°11' W 008°42'0 0.1
2018-Feb-17 08:30N 41°11' W 008°42'2 3.9
2018-Feb-17 08:00N 41°11' W 008°45'56114.1
2018-Feb-15 16:16N 49°46' W 003°26'312.1
2018-Feb-15 16:00N 49°47' W 003°22'612.6
2018-Feb-15 15:30N 49°50' W 003°13'612.4
2018-Feb-15 15:00N 49°54' W 003°05'612.3
2018-Feb-15 14:30N 49°57' W 002°57'612.8
2018-Feb-15 14:00N 49°59' W 002°47'713.3
2018-Feb-15 13:30N 50°01' W 002°38'2014.4
2018-Feb-15 12:05N 50°06' W 002°07'114.9
2018-Feb-15 12:01N 50°07' W 002°05'815.0
2018-Feb-15 11:30N 50°09' W 001°54'714.2
2018-Feb-15 11:00N 50°11' W 001°43'713.9
2018-Feb-15 10:30N 50°13' W 001°33'713.7
2018-Feb-15 10:00N 50°15' W 001°23'2112.6
2018-Feb-15 08:19N 50°24' W 000°52'1 2.1
2018-Feb-15 07:44N 50°23' W 000°52'1713.1
2018-Feb-15 06:25N 50°27' W 000°26'615.0
2018-Feb-15 06:00N 50°28' W 000°16'815.9
2018-Feb-15 05:30N 50°31' W 000°04'816.5
2018-Feb-15 05:01N 50°33' E 000°08'816.8
2018-Feb-15 04:31N 50°36' E 000°20'816.9
2018-Feb-15 04:00N 50°38' E 000°33'816.6
2018-Feb-15 03:30N 50°43' E 000°44'816.0
2018-Feb-15 03:00N 50°48' E 000°54'815.2
2018-Feb-15 02:31N 50°52' E 001°04'814.6
2018-Feb-15 01:59N 50°57' E 001°13'613.4
2018-Feb-15 01:30N 51°01' E 001°21'612.4
2018-Feb-15 01:00N 51°05' E 001°28'611.3
2018-Feb-15 00:31N 51°09' E 001°35'611.9
2018-Feb-15 00:00N 51°12' E 001°43'612.5
2018-Feb-14 23:30N 51°18' E 001°49'713.6
2018-Feb-14 23:00N 51°23' E 001°56'713.9
2018-Feb-14 22:31N 51°29' E 002°02'714.5
2018-Feb-14 22:01N 51°34' E 002°09'815.2
2018-Feb-14 21:30N 51°40' E 002°18'815.7
2018-Feb-14 21:00N 51°45' E 002°26'3915.6
2018-Feb-14 18:31N 52°02' E 003°23'417.6
2018-Feb-14 18:17N 52°03' E 003°29'517.4
2018-Feb-14 18:00N 52°03' E 003°38'714.5
2018-Feb-14 17:30N 52°02' E 003°49'611.8
2018-Feb-14 17:00N 52°01' E 003°58'714.0
2018-Feb-14 16:30N 51°57' E 004°08'3 7.1
2018-Feb-14 16:00N 51°55' E 004°13'2 3.0
2018-Feb-14 15:28N 51°54' E 004°14'0 0.6
2018-Feb-14 14:58N 51°54' E 004°14'0 0.0
2018-Feb-14 14:28N 51°54' E 004°14'0 0.0
2018-Feb-14 13:58N 51°54' E 004°14'0 0.0
2018-Feb-14 13:28N 51°54' E 004°14'0 0.0
2018-Feb-14 12:58N 51°54' E 004°14'0 0.0
2018-Feb-14 12:28N 51°54' E 004°14'0 0.0
2018-Feb-14 11:58N 51°54' E 004°14'0 0.0
2018-Feb-14 11:28N 51°54' E 004°14'0 0.0
2018-Feb-14 10:58N 51°54' E 004°14'0 0.0
2018-Feb-14 10:28N 51°54' E 004°14'0 0.0
2018-Feb-14 09:58N 51°54' E 004°14'0 0.0
2018-Feb-14 09:28N 51°54' E 004°14'0 0.0
2018-Feb-14 08:58N 51°54' E 004°14'0 0.0
2018-Feb-14 08:28N 51°54' E 004°14'0 0.0
2018-Feb-14 07:58N 51°54' E 004°14'0 0.0
2018-Feb-14 07:28N 51°54' E 004°14'0 0.0
2018-Feb-14 06:58N 51°54' E 004°14'0 0.0
2018-Feb-14 06:28N 51°54' E 004°14'0 0.0
2018-Feb-14 05:58N 51°54' E 004°14'0 0.0
2018-Feb-14 05:28N 51°54' E 004°14'0 0.0
2018-Feb-14 04:58N 51°54' E 004°14'0 0.0
2018-Feb-14 04:28N 51°54' E 004°14'0 0.0
2018-Feb-14 04:00N 51°54' E 004°14'0 0.9
2018-Feb-14 03:30N 51°54' E 004°14'2 4.6
2018-Feb-14 03:00N 51°56' E 004°12'4 8.8
2018-Feb-14 02:30N 51°58' E 004°06'815.3
2018-Feb-14 02:00N 52°00' E 003°54'815.2
2018-Feb-14 01:30N 51°59' E 003°42'3914.8
2018-Feb-13 22:52N 51°47' E 002°42'614.4
2018-Feb-13 22:27N 51°43' E 002°34'714.9
2018-Feb-13 22:00N 51°38' E 002°27'714.8
2018-Feb-13 21:30N 51°32' E 002°20'714.1
2018-Feb-13 21:00N 51°26' E 002°14'612.2
2018-Feb-13 20:30N 51°20' E 002°09'713.5
2018-Feb-13 20:01N 51°15' E 002°04'613.0
2018-Feb-13 19:31N 51°11' E 001°56'713.5
2018-Feb-13 19:00N 51°07' E 001°47'714.0
2018-Feb-13 18:30N 51°02' E 001°40'713.6
2018-Feb-13 18:00N 50°57' E 001°32'714.0
2018-Feb-13 17:30N 50°51' E 001°27'713.7
2018-Feb-13 16:59N 50°44' E 001°22'2213.9
2018-Feb-13 15:22N 50°30' E 000°55'613.9
2018-Feb-13 14:56N 50°28' E 000°46'814.2
2018-Feb-13 14:24N 50°26' E 000°34'614.0
2018-Feb-13 13:57N 50°25' E 000°24'613.7
2018-Feb-13 13:30N 50°23' E 000°15'713.7
2018-Feb-13 13:00N 50°21' E 000°05'713.6
2018-Feb-13 12:30N 50°19' W 000°05'713.1
2018-Feb-13 12:00N 50°17' W 000°15'2913.0
2018-Feb-13 09:45N 50°09' W 000°59'413.3
2018-Feb-13 09:27N 50°08' W 001°05'612.7
2018-Feb-13 09:00N 50°07' W 001°13'612.9
2018-Feb-13 08:30N 50°05' W 001°23'713.7
2018-Feb-13 08:00N 50°03' W 001°33'714.2
2018-Feb-13 07:30N 50°01' W 001°44'714.6
2018-Feb-13 07:01N 49°59' W 001°55'815.9
2018-Feb-13 06:31N 49°57' W 002°07'1515.4
2018-Feb-13 05:33N 49°53' W 002°29'716.5
2018-Feb-13 05:06N 49°51' W 002°40'416.6
2018-Feb-13 04:52N 49°49' W 002°45'1416.4
2018-Feb-13 04:00N 49°43' W 003°05'816.6
2018-Feb-13 03:30N 49°39' W 003°17'7717.2
2018-Feb-12 23:03N 49°01' W 004°59'216.7
2018-Feb-12 22:57N 48°60' W 005°01'816.8
2018-Feb-12 22:29N 48°56' W 005°11'816.8
2018-Feb-12 22:00N 48°51' W 005°21'916.7
2018-Feb-12 21:28N 48°47' W 005°33'816.2
2018-Feb-12 20:57N 48°41' W 005°41'1515.6
2018-Feb-12 20:00N 48°26' W 005°40'1016.0
2018-Feb-12 19:24N 48°17' W 005°34'816.0
2018-Feb-12 18:54N 48°10' W 005°29'715.7
2018-Feb-12 18:29N 48°03' W 005°26'815.7
2018-Feb-12 17:59N 47°56' W 005°22'715.4
2018-Feb-12 17:30N 47°49' W 005°18'815.5
2018-Feb-12 17:00N 47°42' W 005°15'815.9
2018-Feb-12 16:30N 47°34' W 005°11'24415.3
2018-Feb-12 00:30N 43°37' W 003°48'72 7.3
2018-Feb-11 14:42N 43°39' W 005°27'417.5
2018-Feb-11 14:29N 43°40' W 005°32'2017.7
2018-Feb-11 13:23N 43°42' W 005°59'717.5
2018-Feb-11 13:00N 43°43' W 006°08'917.5
2018-Feb-11 12:28N 43°44' W 006°21'18310.7
2018-Feb-10 19:18N 41°16' W 008°49'515.9
2018-Feb-10 19:00N 41°12' W 008°46'4 6.7
2018-Feb-10 18:29N 41°11' W 008°42'0 0.0
2018-Feb-10 17:59N 41°11' W 008°42'0 0.0
2018-Feb-10 17:29N 41°11' W 008°42'0 0.0
2018-Feb-10 16:59N 41°11' W 008°42'0 0.0
2018-Feb-10 16:29N 41°11' W 008°42'0 0.0
2018-Feb-10 15:59N 41°11' W 008°42'0 0.0
2018-Feb-10 15:29N 41°11' W 008°42'0 0.0
2018-Feb-10 14:59N 41°11' W 008°42'0 0.0
2018-Feb-10 14:29N 41°11' W 008°42'0 0.0
2018-Feb-10 13:59N 41°11' W 008°42'0 0.0
2018-Feb-10 13:29N 41°11' W 008°42'0 0.0
2018-Feb-10 12:59N 41°11' W 008°42'0 0.0
2018-Feb-10 12:29N 41°11' W 008°42'0 0.0
2018-Feb-10 11:59N 41°11' W 008°42'0 0.0
2018-Feb-10 11:29N 41°11' W 008°42'0 0.0
2018-Feb-10 10:59N 41°11' W 008°42'0 0.0
2018-Feb-10 10:29N 41°11' W 008°42'0 0.0
2018-Feb-10 09:59N 41°11' W 008°42'0 0.0
2018-Feb-10 09:29N 41°11' W 008°42'0 0.0
2018-Feb-10 08:59N 41°11' W 008°42'0 0.0
2018-Feb-10 08:29N 41°11' W 008°42'0 0.0
2018-Feb-10 07:59N 41°11' W 008°42'0 0.0
2018-Feb-10 07:30N 41°11' W 008°42'1 1.9
2018-Feb-10 07:00N 41°10' W 008°43'4 7.1
2018-Feb-10 06:30N 41°12' W 008°46'  
Track history (hours):
 
Tides and Currents Weather Stations Pressure Air Temp Water Temp Dewpoint Dewpoint Depression Visibility Wind Speed Wind Dir Waves Ship Positions

Catherine

Last reported at 2018-Feb-19 16:00 UTC. Time now 2018-Feb-19 16:01 UTC.
Position N 47°47' W 005°25'.

Length 182 m; draft 7.4 m.

Type: Ship (hazmat cat A). MMSI: 249107000.

Date/timePositionNaut miles runAvg speedWind from/ knotsBaromVisibWave heightAir tempDewpointWater temp
2018-Feb-19 16:00N 47°47' W 005°25'815.5
2018-Feb-19 15:28N 47°40' W 005°22'715.7
2018-Feb-19 15:00N 47°33' W 005°19'815.6
2018-Feb-19 14:30N 47°25' W 005°16'815.5
2018-Feb-19 13:58N 47°17' W 005°13'815.6
2018-Feb-19 13:25N 47°09' W 005°10'1215.8
2018-Feb-19 12:41N 46°57' W 005°05'315.9
2018-Feb-19 12:29N 46°54' W 005°04'20715.7
2018-Feb-18 23:16N 43°34' W 003°47'64 8.1
2018-Feb-18 15:24N 43°38' W 005°14'717.9
2018-Feb-18 15:00N 43°39' W 005°24'918.1
2018-Feb-18 14:30N 43°40' W 005°37'918.3
2018-Feb-18 14:00N 43°41' W 005°49'918.2
2018-Feb-18 13:30N 43°42' W 006°02'1017.9
2018-Feb-18 12:58N 43°43' W 006°15'18610.8
2018-Feb-17 19:46N 41°15' W 008°48'415.4
2018-Feb-17 19:30N 41°11' W 008°46'3 5.4
2018-Feb-17 18:59N 41°11' W 008°42'0 0.0
2018-Feb-17 18:29N 41°11' W 008°42'0 0.0
2018-Feb-17 17:59N 41°11' W 008°42'0 0.0
2018-Feb-17 17:29N 41°11' W 008°42'0 0.0
2018-Feb-17 16:59N 41°11' W 008°42'0 0.0
2018-Feb-17 16:29N 41°11' W 008°42'0 0.0
2018-Feb-17 15:59N 41°11' W 008°42'0 0.0
2018-Feb-17 15:29N 41°11' W 008°42'0 0.0
2018-Feb-17 14:59N 41°11' W 008°42'0 0.0
2018-Feb-17 14:29N 41°11' W 008°42'0 0.0
2018-Feb-17 13:59N 41°11' W 008°42'0 0.0
2018-Feb-17 13:29N 41°11' W 008°42'0 0.0
2018-Feb-17 12:59N 41°11' W 008°42'0 0.0
2018-Feb-17 12:29N 41°11' W 008°42'0 0.0
2018-Feb-17 11:59N 41°11' W 008°42'0 0.0
2018-Feb-17 11:29N 41°11' W 008°42'0 0.0
2018-Feb-17 10:59N 41°11' W 008°42'0 0.0
2018-Feb-17 10:29N 41°11' W 008°42'0 0.0
2018-Feb-17 09:59N 41°11' W 008°42'0 0.0
2018-Feb-17 09:29N 41°11' W 008°42'0 0.0
2018-Feb-17 08:59N 41°11' W 008°42'0 0.1
2018-Feb-17 08:30N 41°11' W 008°42'2 3.9
2018-Feb-17 08:00N 41°11' W 008°45'56114.1
2018-Feb-15 16:16N 49°46' W 003°26'312.1
2018-Feb-15 16:00N 49°47' W 003°22'612.6
2018-Feb-15 15:30N 49°50' W 003°13'612.4
2018-Feb-15 15:00N 49°54' W 003°05'612.3
2018-Feb-15 14:30N 49°57' W 002°57'612.8
2018-Feb-15 14:00N 49°59' W 002°47'713.3
2018-Feb-15 13:30N 50°01' W 002°38'2014.4
2018-Feb-15 12:05N 50°06' W 002°07'114.9
2018-Feb-15 12:01N 50°07' W 002°05'815.0
2018-Feb-15 11:30N 50°09' W 001°54'714.2
2018-Feb-15 11:00N 50°11' W 001°43'713.9
2018-Feb-15 10:30N 50°13' W 001°33'713.7
2018-Feb-15 10:00N 50°15' W 001°23'2112.6
2018-Feb-15 08:19N 50°24' W 000°52'1 2.1
2018-Feb-15 07:44N 50°23' W 000°52'1713.1
2018-Feb-15 06:25N 50°27' W 000°26'615.0
2018-Feb-15 06:00N 50°28' W 000°16'815.9
2018-Feb-15 05:30N 50°31' W 000°04'816.5
2018-Feb-15 05:01N 50°33' E 000°08'816.8
2018-Feb-15 04:31N 50°36' E 000°20'816.9
2018-Feb-15 04:00N 50°38' E 000°33'816.6
2018-Feb-15 03:30N 50°43' E 000°44'816.0
2018-Feb-15 03:00N 50°48' E 000°54'815.2
2018-Feb-15 02:31N 50°52' E 001°04'814.6
2018-Feb-15 01:59N 50°57' E 001°13'613.4
2018-Feb-15 01:30N 51°01' E 001°21'612.4
2018-Feb-15 01:00N 51°05' E 001°28'611.3
2018-Feb-15 00:31N 51°09' E 001°35'611.9
2018-Feb-15 00:00N 51°12' E 001°43'612.5
2018-Feb-14 23:30N 51°18' E 001°49'713.6
2018-Feb-14 23:00N 51°23' E 001°56'713.9
2018-Feb-14 22:31N 51°29' E 002°02'714.5
2018-Feb-14 22:01N 51°34' E 002°09'815.2
2018-Feb-14 21:30N 51°40' E 002°18'815.7
2018-Feb-14 21:00N 51°45' E 002°26'3915.6
2018-Feb-14 18:31N 52°02' E 003°23'417.6
2018-Feb-14 18:17N 52°03' E 003°29'517.4
2018-Feb-14 18:00N 52°03' E 003°38'714.5
2018-Feb-14 17:30N 52°02' E 003°49'611.8
2018-Feb-14 17:00N 52°01' E 003°58'714.0
2018-Feb-14 16:30N 51°57' E 004°08'3 7.1
2018-Feb-14 16:00N 51°55' E 004°13'2 3.0
2018-Feb-14 15:28N 51°54' E 004°14'0 0.6
2018-Feb-14 14:58N 51°54' E 004°14'0 0.0
2018-Feb-14 14:28N 51°54' E 004°14'0 0.0
2018-Feb-14 13:58N 51°54' E 004°14'0 0.0
2018-Feb-14 13:28N 51°54' E 004°14'0 0.0
2018-Feb-14 12:58N 51°54' E 004°14'0 0.0
2018-Feb-14 12:28N 51°54' E 004°14'0 0.0
2018-Feb-14 11:58N 51°54' E 004°14'0 0.0
2018-Feb-14 11:28N 51°54' E 004°14'0 0.0
2018-Feb-14 10:58N 51°54' E 004°14'0 0.0
2018-Feb-14 10:28N 51°54' E 004°14'0 0.0
2018-Feb-14 09:58N 51°54' E 004°14'0 0.0
2018-Feb-14 09:28N 51°54' E 004°14'0 0.0
2018-Feb-14 08:58N 51°54' E 004°14'0 0.0
2018-Feb-14 08:28N 51°54' E 004°14'0 0.0
2018-Feb-14 07:58N 51°54' E 004°14'0 0.0
2018-Feb-14 07:28N 51°54' E 004°14'0 0.0
2018-Feb-14 06:58N 51°54' E 004°14'0 0.0
2018-Feb-14 06:28N 51°54' E 004°14'0 0.0
2018-Feb-14 05:58N 51°54' E 004°14'0 0.0
2018-Feb-14 05:28N 51°54' E 004°14'0 0.0
2018-Feb-14 04:58N 51°54' E 004°14'0 0.0
2018-Feb-14 04:28N 51°54' E 004°14'0 0.0
2018-Feb-14 04:00N 51°54' E 004°14'0 0.9
2018-Feb-14 03:30N 51°54' E 004°14'2 4.6
2018-Feb-14 03:00N 51°56' E 004°12'4 8.8
2018-Feb-14 02:30N 51°58' E 004°06'815.3
2018-Feb-14 02:00N 52°00' E 003°54'815.2
2018-Feb-14 01:30N 51°59' E 003°42'3914.8
2018-Feb-13 22:52N 51°47' E 002°42'614.4
2018-Feb-13 22:27N 51°43' E 002°34'714.9
2018-Feb-13 22:00N 51°38' E 002°27'714.8
2018-Feb-13 21:30N 51°32' E 002°20'714.1
2018-Feb-13 21:00N 51°26' E 002°14'612.2
2018-Feb-13 20:30N 51°20' E 002°09'713.5
2018-Feb-13 20:01N 51°15' E 002°04'613.0
2018-Feb-13 19:31N 51°11' E 001°56'713.5
2018-Feb-13 19:00N 51°07' E 001°47'714.0
2018-Feb-13 18:30N 51°02' E 001°40'713.6
2018-Feb-13 18:00N 50°57' E 001°32'714.0
2018-Feb-13 17:30N 50°51' E 001°27'713.7
2018-Feb-13 16:59N 50°44' E 001°22'2213.9
2018-Feb-13 15:22N 50°30' E 000°55'613.9
2018-Feb-13 14:56N 50°28' E 000°46'814.2
2018-Feb-13 14:24N 50°26' E 000°34'614.0
2018-Feb-13 13:57N 50°25' E 000°24'613.7
2018-Feb-13 13:30N 50°23' E 000°15'713.7
2018-Feb-13 13:00N 50°21' E 000°05'713.6
2018-Feb-13 12:30N 50°19' W 000°05'713.1
2018-Feb-13 12:00N 50°17' W 000°15'2913.0
2018-Feb-13 09:45N 50°09' W 000°59'413.3
2018-Feb-13 09:27N 50°08' W 001°05'612.7
2018-Feb-13 09:00N 50°07' W 001°13'612.9
2018-Feb-13 08:30N 50°05' W 001°23'713.7
2018-Feb-13 08:00N 50°03' W 001°33'714.2
2018-Feb-13 07:30N 50°01' W 001°44'714.6
2018-Feb-13 07:01N 49°59' W 001°55'815.9
2018-Feb-13 06:31N 49°57' W 002°07'1515.4
2018-Feb-13 05:33N 49°53' W 002°29'716.5
2018-Feb-13 05:06N 49°51' W 002°40'416.6
2018-Feb-13 04:52N 49°49' W 002°45'1416.4
2018-Feb-13 04:00N 49°43' W 003°05'816.6
2018-Feb-13 03:30N 49°39' W 003°17'7717.2
2018-Feb-12 23:03N 49°01' W 004°59'216.7
2018-Feb-12 22:57N 48°60' W 005°01'816.8
2018-Feb-12 22:29N 48°56' W 005°11'816.8
2018-Feb-12 22:00N 48°51' W 005°21'916.7
2018-Feb-12 21:28N 48°47' W 005°33'816.2
2018-Feb-12 20:57N 48°41' W 005°41'1515.6
2018-Feb-12 20:00N 48°26' W 005°40'1016.0
2018-Feb-12 19:24N 48°17' W 005°34'816.0
2018-Feb-12 18:54N 48°10' W 005°29'715.7
2018-Feb-12 18:29N 48°03' W 005°26'815.7
2018-Feb-12 17:59N 47°56' W 005°22'715.4
2018-Feb-12 17:30N 47°49' W 005°18'815.5
2018-Feb-12 17:00N 47°42' W 005°15'815.9
2018-Feb-12 16:30N 47°34' W 005°11'24415.3
2018-Feb-12 00:30N 43°37' W 003°48'72 7.3
2018-Feb-11 14:42N 43°39' W 005°27'417.5
2018-Feb-11 14:29N 43°40' W 005°32'2017.7
2018-Feb-11 13:23N 43°42' W 005°59'717.5
2018-Feb-11 13:00N 43°43' W 006°08'917.5
2018-Feb-11 12:28N 43°44' W 006°21'18310.7
2018-Feb-10 19:18N 41°16' W 008°49'515.9
2018-Feb-10 19:00N 41°12' W 008°46'4 6.7
2018-Feb-10 18:29N 41°11' W 008°42'0 0.0
2018-Feb-10 17:59N 41°11' W 008°42'0 0.0
2018-Feb-10 17:29N 41°11' W 008°42'0 0.0
2018-Feb-10 16:59N 41°11' W 008°42'0 0.0
2018-Feb-10 16:29N 41°11' W 008°42'0 0.0
2018-Feb-10 15:59N 41°11' W 008°42'0 0.0
2018-Feb-10 15:29N 41°11' W 008°42'0 0.0
2018-Feb-10 14:59N 41°11' W 008°42'0 0.0
2018-Feb-10 14:29N 41°11' W 008°42'0 0.0
2018-Feb-10 13:59N 41°11' W 008°42'0 0.0
2018-Feb-10 13:29N 41°11' W 008°42'0 0.0
2018-Feb-10 12:59N 41°11' W 008°42'0 0.0
2018-Feb-10 12:29N 41°11' W 008°42'0 0.0
2018-Feb-10 11:59N 41°11' W 008°42'0 0.0
2018-Feb-10 11:29N 41°11' W 008°42'0 0.0
2018-Feb-10 10:59N 41°11' W 008°42'0 0.0
2018-Feb-10 10:29N 41°11' W 008°42'0 0.0
2018-Feb-10 09:59N 41°11' W 008°42'0 0.0
2018-Feb-10 09:29N 41°11' W 008°42'0 0.0
2018-Feb-10 08:59N 41°11' W 008°42'0 0.0
2018-Feb-10 08:29N 41°11' W 008°42'0 0.0
2018-Feb-10 07:59N 41°11' W 008°42'0 0.0
2018-Feb-10 07:30N 41°11' W 008°42'1 1.9
2018-Feb-10 07:00N 41°10' W 008°43'4 7.1
2018-Feb-10 06:30N 41°12' W 008°46'  

Dump ship's entire track history